createdAt,value
2022-08-22T00:02:09.108Z,21.30
2022-08-22T00:07:05.523Z,21.20
2022-08-22T00:12:14.023Z,21.10
2022-08-22T00:22:03.998Z,21.00
2022-08-22T00:27:08.262Z,20.90
2022-08-22T00:32:06.130Z,21.00
2022-08-22T00:37:19.448Z,20.90
2022-08-22T00:42:12.874Z,21.00
2022-08-22T00:47:19.822Z,20.90
2022-08-22T00:52:13.147Z,20.80
2022-08-22T01:07:10.607Z,20.70
2022-08-22T01:17:09.750Z,20.60
2022-08-22T01:27:08.116Z,20.40
2022-08-22T01:42:19.642Z,20.50
2022-08-22T02:02:19.837Z,20.40
2022-08-22T02:07:05.874Z,20.20
2022-08-22T02:12:22.011Z,20.10
2022-08-22T02:17:16.582Z,20.20
2022-08-22T02:22:06.163Z,20.10
2022-08-22T02:27:09.846Z,19.80
2022-08-22T02:32:13.547Z,19.90
2022-08-22T02:37:14.091Z,20.00
2022-08-22T02:47:12.598Z,19.90
2022-08-22T02:52:13.678Z,20.00
2022-08-22T03:17:04.825Z,19.90
2022-08-22T03:27:09.990Z,19.70
2022-08-22T03:37:19.858Z,19.60
2022-08-22T03:42:09.989Z,19.40
2022-08-22T03:47:17.436Z,19.20
2022-08-22T03:52:12.367Z,19.30
2022-08-22T03:57:05.365Z,19.50
2022-08-22T04:02:00.413Z,19.30
2022-08-22T04:07:32.231Z,19.20
2022-08-22T04:17:10.095Z,19.10
2022-08-22T04:22:01.196Z,19.00
2022-08-22T04:27:16.577Z,19.20
2022-08-22T04:42:31.331Z,19.30
2022-08-22T04:47:15.618Z,19.10
2022-08-22T04:52:13.519Z,19.00
2022-08-22T04:57:07.159Z,19.10
2022-08-22T05:02:05.270Z,19.20
2022-08-22T05:12:07.956Z,19.30
2022-08-22T05:47:10.358Z,19.40
2022-08-22T06:09:46.382Z,19.40
2022-08-22T06:12:21.633Z,19.50
2022-08-22T06:17:09.184Z,19.60
2022-08-22T06:22:02.396Z,19.70
2022-08-22T06:27:09.034Z,19.80
2022-08-22T06:32:07.125Z,20.00
2022-08-22T06:42:07.611Z,20.20
2022-08-22T06:52:05.447Z,20.30
2022-08-22T07:02:07.630Z,20.50
2022-08-22T07:12:09.893Z,20.60
2022-08-22T07:17:03.529Z,20.70
2022-08-22T07:27:12.261Z,20.80
2022-08-22T07:37:06.362Z,20.70
2022-08-22T07:42:08.666Z,20.80
2022-08-22T07:47:07.789Z,20.90
2022-08-22T07:52:07.720Z,21.00
2022-08-22T07:57:06.108Z,21.10
2022-08-22T08:02:06.812Z,21.30
2022-08-22T08:07:04.829Z,21.40
2022-08-22T08:12:04.765Z,21.50
2022-08-22T08:17:13.556Z,21.60
2022-08-22T08:22:01.674Z,21.70
2022-08-22T08:27:14.677Z,21.80
2022-08-22T08:32:01.154Z,21.90
2022-08-22T08:42:11.877Z,22.00
2022-08-22T08:47:14.682Z,22.20
2022-08-22T08:52:20.957Z,22.50
2022-08-22T09:02:13.782Z,22.80
2022-08-22T09:07:20.841Z,23.00
2022-08-22T09:12:22.381Z,23.30
2022-08-22T09:17:18.714Z,23.40
2022-08-22T09:22:14.723Z,23.70
2022-08-22T09:27:08.764Z,24.00
2022-08-22T09:32:12.980Z,24.10
2022-08-22T09:37:14.349Z,24.20
2022-08-22T09:42:14.043Z,24.40
2022-08-22T09:47:11.955Z,24.50
2022-08-22T09:52:14.517Z,24.30
2022-08-22T09:57:14.991Z,24.40
2022-08-22T10:07:12.088Z,24.50
2022-08-22T10:12:05.927Z,24.70
2022-08-22T10:17:12.089Z,25.30
2022-08-22T10:22:21.083Z,27.10
2022-08-22T10:27:08.871Z,27.30
2022-08-22T10:32:14.732Z,28.60
2022-08-22T10:37:11.557Z,29.00
2022-08-22T10:42:15.848Z,30.00
2022-08-22T10:47:07.550Z,32.50
2022-08-22T10:52:15.368Z,33.50
2022-08-22T10:57:11.061Z,32.70
2022-08-22T11:02:11.219Z,33.50
2022-08-22T11:07:11.215Z,37.30
2022-08-22T11:12:12.040Z,38.70
2022-08-22T11:17:31.149Z,35.40
2022-08-22T11:22:05.464Z,34.10
2022-08-22T11:27:12.953Z,32.40
2022-08-22T11:32:13.989Z,36.30
2022-08-22T11:37:11.108Z,38.50
2022-08-22T11:42:13.706Z,34.60
2022-08-22T11:47:07.807Z,34.80
2022-08-22T11:52:02.439Z,37.00
2022-08-22T11:57:06.549Z,39.40
2022-08-22T12:02:05.935Z,39.10
2022-08-22T12:07:16.302Z,36.10
2022-08-22T12:12:18.114Z,34.80
2022-08-22T12:17:04.914Z,32.90
2022-08-22T12:22:15.553Z,31.40
2022-08-22T12:27:10.554Z,30.90
2022-08-22T12:32:27.517Z,31.10
2022-08-22T12:37:14.585Z,30.70
2022-08-22T12:42:17.557Z,30.30
2022-08-22T12:47:18.870Z,29.80
2022-08-22T12:52:11.528Z,30.20
2022-08-22T12:57:24.426Z,30.10
2022-08-22T13:02:13.021Z,29.80
2022-08-22T13:07:05.277Z,28.60
2022-08-22T13:12:13.880Z,28.70
2022-08-22T13:17:15.188Z,29.20
2022-08-22T13:22:02.697Z,29.50
2022-08-22T13:27:06.200Z,29.10
2022-08-22T13:32:03.456Z,28.10
2022-08-22T13:37:03.924Z,28.50
2022-08-22T13:42:07.629Z,28.90
2022-08-22T13:47:14.157Z,28.80
2022-08-22T13:57:23.860Z,28.60
2022-08-22T14:02:08.445Z,28.50
2022-08-22T14:07:02.667Z,28.80
2022-08-22T14:12:12.798Z,29.30
2022-08-22T14:17:03.103Z,29.20
2022-08-22T14:22:04.018Z,29.10
2022-08-22T14:27:06.608Z,28.70
2022-08-22T14:32:14.395Z,28.20
2022-08-22T14:37:19.847Z,28.30
2022-08-22T14:42:11.129Z,29.00
2022-08-22T14:47:32.183Z,28.80
2022-08-22T14:57:10.091Z,28.70
2022-08-22T15:02:08.261Z,28.50
2022-08-22T15:07:02.826Z,28.80
2022-08-22T15:12:07.680Z,29.10
2022-08-22T15:22:13.918Z,29.20
2022-08-22T15:27:02.205Z,28.70
2022-08-22T15:32:03.321Z,28.50
2022-08-22T15:42:03.409Z,28.70
2022-08-22T15:47:10.691Z,28.80
2022-08-22T15:52:02.104Z,28.70
2022-08-22T15:57:09.427Z,28.30
2022-08-22T16:02:08.836Z,28.10
2022-08-22T16:07:21.593Z,28.00
2022-08-22T16:12:07.842Z,28.10
2022-08-22T16:17:07.035Z,28.00
2022-08-22T16:22:05.799Z,28.20
2022-08-22T16:27:22.075Z,28.30
2022-08-22T16:37:02.243Z,28.10
2022-08-22T16:42:12.317Z,28.30
2022-08-22T16:47:17.286Z,28.10
2022-08-22T16:57:14.518Z,28.20
2022-08-22T17:07:13.682Z,28.00
2022-08-22T17:12:03.381Z,28.10
2022-08-22T17:27:07.587Z,27.90
2022-08-22T17:37:12.585Z,27.70
2022-08-22T17:47:13.972Z,27.50
2022-08-22T18:07:13.423Z,27.30
2022-08-22T18:17:16.167Z,27.10
2022-08-22T18:22:08.485Z,27.00
2022-08-22T18:27:09.641Z,26.90
2022-08-22T18:32:13.307Z,26.80
2022-08-22T18:37:15.279Z,26.70
2022-08-22T18:47:14.020Z,26.50
2022-08-22T18:57:22.926Z,26.30
2022-08-22T19:12:20.075Z,26.40
2022-08-22T19:17:17.227Z,26.20
2022-08-22T19:27:06.050Z,26.00
2022-08-22T19:37:30.482Z,25.90
2022-08-22T19:47:12.769Z,25.70
2022-08-22T19:52:22.899Z,25.60
2022-08-22T19:57:12.669Z,25.50
2022-08-22T20:12:15.552Z,25.40
2022-08-22T20:17:21.650Z,25.50
2022-08-22T20:27:14.609Z,25.40
2022-08-22T20:32:05.043Z,25.50
2022-08-22T20:37:27.053Z,25.40
2022-08-22T20:47:04.908Z,25.30
2022-08-22T20:57:14.946Z,25.20
2022-08-22T21:02:07.843Z,25.30
2022-08-22T21:27:03.315Z,25.10
2022-08-22T21:37:09.555Z,25.00
2022-08-22T21:47:14.099Z,24.90
2022-08-22T21:52:03.430Z,25.10
2022-08-22T21:57:10.807Z,24.90
2022-08-22T22:02:22.989Z,25.00
2022-08-22T22:07:03.199Z,24.90
2022-08-22T22:17:03.278Z,24.70
2022-08-22T22:22:04.037Z,24.80
2022-08-22T22:27:04.514Z,24.70
2022-08-22T22:32:03.501Z,24.80
2022-08-22T22:37:04.330Z,24.70
2022-08-22T22:47:03.721Z,24.50
2022-08-22T22:52:03.583Z,24.40
2022-08-22T22:57:03.250Z,24.20
2022-08-22T23:02:07.245Z,24.40
2022-08-22T23:12:03.968Z,24.50
2022-08-22T23:17:03.841Z,24.40
2022-08-22T23:22:04.821Z,24.50
2022-08-22T23:27:06.394Z,24.30
2022-08-22T23:32:04.183Z,24.40
2022-08-22T23:37:06.502Z,24.20
2022-08-22T23:47:04.887Z,24.10
2022-08-22T23:52:04.866Z,23.90
